AXB211 VIDP-VNKT
Flight info
| Callsign | AXB211 |
|---|---|
| Flight time | 1h 12m |
| Altitude | 33000 |
| Route | ALI7B ALI G452 LKN G598 SMR SMR |
| Aircraft | B738/M-SDE2E3FGHIRWXY/LB1 |
Departure
| Time | 2025-12-30 11:53 |
|---|---|
| Airport | Indira Gandhi International Airport (VIDP) |
Arrival
| Time | 2025-12-30 13:06 |
|---|---|
| Airport | Tribhuvan International Airport (VNKT) |
| Time | Latitude | Longitude | Altitude | Speed | Heading |
|---|---|---|---|---|---|
| 2025-12-30 11:25 | 28.55986 | 77.08654 | 783 ft | 0 kts | 154° |
| 2025-12-30 11:41 | 28.55992 | 77.08652 | 783 ft | 2 kts | 155° |
| 2025-12-30 11:42 | 28.56019 | 77.08637 | 783 ft | 2 kts | 154° |
| 2025-12-30 11:42 | 28.56041 | 77.08625 | 783 ft | 2 kts | 154° |
| 2025-12-30 11:43 | 28.56068 | 77.08610 | 783 ft | 2 kts | 154° |
| 2025-12-30 11:43 | 28.56087 | 77.08600 | 783 ft | 0 kts | 153° |
| 2025-12-30 11:45 | 28.56094 | 77.08689 | 783 ft | 8 kts | 60° |
| 2025-12-30 11:46 | 28.56155 | 77.08862 | 783 ft | 14 kts | 95° |
| 2025-12-30 11:46 | 28.56179 | 77.09051 | 783 ft | 14 kts | 16° |
| 2025-12-30 11:47 | 28.56379 | 77.09152 | 783 ft | 16 kts | 88° |
| 2025-12-30 11:47 | 28.56302 | 77.09470 | 783 ft | 26 kts | 103° |
| 2025-12-30 11:48 | 28.56256 | 77.09686 | 783 ft | 31 kts | 105° |
| 2025-12-30 11:48 | 28.56144 | 77.10171 | 783 ft | 35 kts | 104° |
| 2025-12-30 11:49 | 28.56040 | 77.10628 | 783 ft | 30 kts | 104° |
| 2025-12-30 11:49 | 28.55876 | 77.11327 | 783 ft | 33 kts | 104° |
| 2025-12-30 11:50 | 28.55793 | 77.11707 | 783 ft | 12 kts | 85° |
| 2025-12-30 11:50 | 28.55889 | 77.11770 | 783 ft | 7 kts | 12° |
| 2025-12-30 11:51 | 28.55949 | 77.11784 | 783 ft | 2 kts | 0° |
| 2025-12-30 11:51 | 28.55963 | 77.11773 | 783 ft | 3 kts | 313° |
| 2025-12-30 11:52 | 28.55980 | 77.11723 | 783 ft | 9 kts | 282° |
| 2025-12-30 11:52 | 28.56303 | 77.10326 | 785 ft | 161 kts | 284° |
| 2025-12-30 11:53 | 28.56931 | 77.07742 | 2388 ft | 166 kts | 285° |
| 2025-12-30 11:53 | 28.57898 | 77.03796 | 4515 ft | 177 kts | 284° |
| 2025-12-30 11:54 | 28.58200 | 77.02310 | 4873 ft | 202 kts | 282° |
| 2025-12-30 11:54 | 28.59339 | 76.97086 | 6490 ft | 255 kts | 284° |
| 2025-12-30 11:55 | 28.59929 | 76.92931 | 7817 ft | 280 kts | 258° |
| 2025-12-30 11:55 | 28.59148 | 76.91094 | 8684 ft | 282 kts | 231° |
| 2025-12-30 11:56 | 28.56040 | 76.89147 | 8965 ft | 294 kts | 192° |
| 2025-12-30 11:56 | 28.52045 | 76.88513 | 8967 ft | 283 kts | 189° |
| 2025-12-30 11:57 | 28.48214 | 76.87886 | 8956 ft | 286 kts | 190° |
| 2025-12-30 11:57 | 28.42518 | 76.86849 | 10039 ft | 287 kts | 191° |
| 2025-12-30 11:58 | 28.38762 | 76.86173 | 10800 ft | 292 kts | 191° |
| 2025-12-30 11:58 | 28.35180 | 76.85525 | 11538 ft | 296 kts | 191° |
| 2025-12-30 11:59 | 28.31332 | 76.84861 | 12304 ft | 298 kts | 189° |
| 2025-12-30 11:59 | 28.29281 | 76.84657 | 12728 ft | 312 kts | 186° |
| 2025-12-30 12:00 | 28.24716 | 76.85154 | 13545 ft | 356 kts | 157° |
| 2025-12-30 12:00 | 28.21423 | 76.89383 | 14394 ft | 377 kts | 114° |
| 2025-12-30 12:01 | 28.19845 | 76.94924 | 15225 ft | 382 kts | 107° |
| 2025-12-30 12:01 | 28.17560 | 77.03526 | 16498 ft | 390 kts | 109° |
| 2025-12-30 12:02 | 28.15951 | 77.09007 | 17303 ft | 393 kts | 110° |
| 2025-12-30 12:02 | 28.14182 | 77.14887 | 18158 ft | 399 kts | 110° |
| 2025-12-30 12:03 | 28.12415 | 77.20764 | 18976 ft | 410 kts | 110° |
| 2025-12-30 12:03 | 28.11541 | 77.23675 | 19371 ft | 413 kts | 110° |
| 2025-12-30 12:04 | 28.09659 | 77.29925 | 20211 ft | 424 kts | 110° |
| 2025-12-30 12:04 | 28.07787 | 77.36134 | 21030 ft | 433 kts | 110° |
| 2025-12-30 12:05 | 28.05828 | 77.42635 | 21855 ft | 443 kts | 110° |
| 2025-12-30 12:05 | 28.02790 | 77.52689 | 23118 ft | 454 kts | 110° |
| 2025-12-30 12:06 | 28.00758 | 77.59384 | 23892 ft | 467 kts | 110° |
| 2025-12-30 12:06 | 27.98675 | 77.66237 | 24656 ft | 479 kts | 110° |
| 2025-12-30 12:07 | 27.97586 | 77.69818 | 25064 ft | 483 kts | 110° |
| 2025-12-30 12:09 | 27.88385 | 77.99958 | 28132 ft | 529 kts | 110° |
| 2025-12-30 12:11 | 27.76579 | 78.35170 | 30922 ft | 546 kts | 115° |
| 2025-12-30 12:13 | 27.66364 | 78.61739 | 30927 ft | 543 kts | 114° |
| 2025-12-30 12:15 | 27.54671 | 78.92540 | 30971 ft | 543 kts | 114° |
| 2025-12-30 12:17 | 27.42852 | 79.23428 | 30930 ft | 541 kts | 114° |
| 2025-12-30 12:19 | 27.31122 | 79.53778 | 30947 ft | 543 kts | 115° |
| 2025-12-30 12:21 | 27.19024 | 79.83746 | 30910 ft | 542 kts | 116° |
| 2025-12-30 12:23 | 27.07043 | 80.13333 | 30930 ft | 544 kts | 115° |
| 2025-12-30 12:25 | 26.95508 | 80.41604 | 30924 ft | 542 kts | 115° |
| 2025-12-30 12:27 | 26.82952 | 80.72195 | 30960 ft | 542 kts | 116° |
| 2025-12-30 12:29 | 26.77236 | 81.03782 | 30963 ft | 524 kts | 76° |
| 2025-12-30 12:31 | 26.80880 | 81.35094 | 30926 ft | 521 kts | 75° |
| 2025-12-30 12:33 | 26.84205 | 81.66118 | 30942 ft | 521 kts | 76° |
| 2025-12-30 12:35 | 26.87488 | 81.97353 | 30966 ft | 522 kts | 76° |
| 2025-12-30 12:37 | 26.90672 | 82.28414 | 30957 ft | 520 kts | 76° |
| 2025-12-30 12:39 | 26.93858 | 82.60129 | 30953 ft | 518 kts | 76° |
| 2025-12-30 12:41 | 26.96956 | 82.91619 | 30959 ft | 516 kts | 76° |
| 2025-12-30 12:43 | 26.99989 | 83.21864 | 30975 ft | 513 kts | 76° |
| 2025-12-30 12:45 | 27.03152 | 83.53215 | 30284 ft | 507 kts | 76° |
| 2025-12-30 12:47 | 27.06046 | 83.82802 | 28584 ft | 485 kts | 78° |
| 2025-12-30 12:49 | 27.08756 | 84.10967 | 26867 ft | 462 kts | 78° |
| 2025-12-30 12:51 | 27.11337 | 84.38387 | 25071 ft | 440 kts | 79° |
| 2025-12-30 12:51 | 27.11969 | 84.45163 | 24612 ft | 435 kts | 80° |
| 2025-12-30 12:52 | 27.12575 | 84.51730 | 23878 ft | 425 kts | 80° |
| 2025-12-30 12:52 | 27.13186 | 84.58361 | 22910 ft | 418 kts | 81° |
| 2025-12-30 12:53 | 27.13766 | 84.64709 | 21970 ft | 409 kts | 81° |
| 2025-12-30 12:53 | 27.14555 | 84.74024 | 20430 ft | 401 kts | 82° |
| 2025-12-30 12:54 | 27.15028 | 84.80225 | 19470 ft | 393 kts | 82° |
| 2025-12-30 12:54 | 27.15258 | 84.83258 | 18654 ft | 392 kts | 82° |
| 2025-12-30 12:55 | 27.15717 | 84.89267 | 17075 ft | 385 kts | 82° |
| 2025-12-30 12:55 | 27.16195 | 84.95143 | 15583 ft | 375 kts | 78° |
| 2025-12-30 12:55 | 27.16756 | 84.97933 | 15084 ft | 358 kts | 66° |
| 2025-12-30 12:56 | 27.20784 | 85.04617 | 14270 ft | 358 kts | 46° |
| 2025-12-30 12:57 | 27.23865 | 85.08950 | 13113 ft | 351 kts | 46° |
| 2025-12-30 12:57 | 27.28210 | 85.15198 | 11214 ft | 329 kts | 47° |
| 2025-12-30 12:58 | 27.31306 | 85.18653 | 10604 ft | 290 kts | 22° |
| 2025-12-30 12:58 | 27.33113 | 85.19559 | 10650 ft | 287 kts | 15° |
| 2025-12-30 12:59 | 27.37114 | 85.21185 | 10649 ft | 316 kts | 16° |
| 2025-12-30 12:59 | 27.41056 | 85.22955 | 10688 ft | 289 kts | 19° |
| 2025-12-30 13:00 | 27.44636 | 85.24577 | 10460 ft | 256 kts | 13° |
| 2025-12-30 13:00 | 27.47825 | 85.24658 | 10435 ft | 209 kts | 340° |
| 2025-12-30 13:01 | 27.50524 | 85.23793 | 10466 ft | 191 kts | 344° |
| 2025-12-30 13:01 | 27.54227 | 85.24034 | 9754 ft | 187 kts | 15° |
| 2025-12-30 13:02 | 27.56474 | 85.25514 | 9152 ft | 191 kts | 37° |
| 2025-12-30 13:02 | 27.57497 | 85.26505 | 8808 ft | 193 kts | 38° |
| 2025-12-30 13:03 | 27.59351 | 85.28696 | 8118 ft | 196 kts | 54° |
| 2025-12-30 13:03 | 27.60879 | 85.31223 | 7431 ft | 195 kts | 41° |
| 2025-12-30 13:04 | 27.62935 | 85.32830 | 6704 ft | 183 kts | 27° |
| 2025-12-30 13:04 | 27.65059 | 85.33936 | 5880 ft | 162 kts | 19° |
| 2025-12-30 13:05 | 27.67250 | 85.34822 | 4628 ft | 165 kts | 21° |
| 2025-12-30 13:05 | 27.69606 | 85.35892 | 4379 ft | 49 kts | 21° |
| 2025-12-30 13:06 | 27.69845 | 85.36000 | 4396 ft | 1 kts | 11° |